AKDT,Max TemperatureF,Mean TemperatureF,Min TemperatureF,Max Dew PointF,MeanDew PointF,Min DewpointF,Max Humidity, Mean Humidity, Min Humidity, Max Sea Level PressureIn, Mean Sea Level PressureIn, Min Sea Level PressureIn, Max VisibilityMiles, Mean VisibilityMiles, Min VisibilityMiles, Max Wind SpeedMPH, Mean Wind SpeedMPH, Max Gust SpeedMPH,PrecipitationIn, CloudCover, Events, WindDirDegrees
2013-3-1,34,28,19,32,27,18,100,89,75,29.94,29.70,29.39,10,7,1,5,2,,0.01,7,Snow,308
2013-3-2,34,26,19,28,24,17,100,92,67,30.09,30.00,29.94,10,6,0,6,2,,0.00,5,Fog,15
2013-3-3,30,21,12,23,15,9,100,80,52,30.45,30.25,30.08,10,9,2,6,1,,0.00,3,,17
2013-3-4,35,27,19,19,17,14,82,64,45,30.47,30.42,30.30,10,10,10,6,1,,0.00,5,,358
2013-3-5,36,26,17,26,20,14,89,74,52,30.29,30.12,29.98,10,10,10,5,1,,0.00,4,,331
2013-3-6,36,28,21,23,21,18,96,74,52,29.98,29.92,29.84,10,10,9,6,1,,0.00,7,,12
2013-3-7,37,30,24,25,22,20,92,70,54,29.83,29.62,29.50,10,10,10,16,4,18,0.00,6,,305
2013-3-8,43,36,30,26,24,22,72,59,45,29.75,29.61,29.54,10,10,10,13,6,22,0.00,6,,307
2013-3-9,42,37,32,34,28,24,100,71,49,30.08,29.93,29.76,10,10,9,7,3,,0.00,8,Snow,303
2013-3-10,34,32,30,34,30,28,100,94,85,30.23,30.14,30.08,10,4,0,9,4,,0.23,8,Fog-Snow,351
2013-3-11,35,28,21,32,23,11,100,80,40,30.30,30.25,30.20,10,9,1,21,4,32,0.00,3,Snow,16
2013-3-12,35,25,16,13,5,-1,68,38,27,30.20,30.10,29.97,10,10,10,23,12,36,0.00,0,,30
2013-3-13,30,19,8,13,3,-3,76,53,30,29.98,29.88,29.79,10,10,9,7,2,,0.00,0,,52
2013-3-14,30,23,16,7,3,-2,54,45,36,29.88,29.83,29.78,10,10,10,14,9,22,0.00,6,Snow,358
2013-3-15,32,20,8,8,4,1,80,52,29,29.85,29.77,29.72,10,10,10,7,3,,0.00,1,,17
2013-3-16,30,18,6,9,4,-1,77,58,33,30.09,29.99,29.86,10,10,10,5,1,,0.00,0,,350
2013-3-17,28,17,6,11,5,0,80,60,36,30.15,30.11,30.04,10,10,10,5,2,,0.00,0,,31
2013-3-18,28,17,6,10,5,-2,73,57,38,30.04,29.94,29.88,10,10,10,4,1,,0.00,0,,322
2013-3-19,28,19,10,6,0,-3,70,44,26,29.91,29.88,29.86,10,10,10,15,6,23,0.00,2,,356
2013-3-20,24,16,8,1,-2,-5,64,45,34,29.98,29.92,29.88,10,10,10,12,6,,0.00,0,,348
2013-3-21,27,16,6,9,2,-3,73,51,33,30.20,30.13,29.99,10,10,10,5,1,,0.00,2,,14
2013-3-22,35,28,21,31,23,8,96,81,51,30.11,29.91,29.79,10,7,2,9,4,,0.00,8,Snow,232
2013-3-23,34,30,26,31,22,12,96,73,53,29.86,29.82,29.75,10,7,2,16,10,23,0.02,8,Snow,321
2013-3-24,26,22,17,24,19,13,96,85,69,29.85,29.69,29.56,10,3,1,9,5,,0.09,8,Snow,353
2013-3-25,24,18,10,22,14,-3,96,82,51,29.71,29.49,29.42,10,2,0,14,4,,0.42,8,Snow,356
2013-3-26,18,10,3,1,-3,-6,80,54,41,30.18,30.00,29.75,10,10,10,7,4,,0.00,4,,15
2013-3-27,21,6,-6,4,0,-9,87,65,46,30.27,30.23,30.19,10,10,6,8,3,,0.00,4,Snow,13
2013-3-28,27,20,14,24,14,3,89,77,54,30.22,30.09,29.95,10,9,2,10,6,,0.00,8,Snow,349
2013-3-29,37,30,23,32,25,20,92,84,73,29.96,29.90,29.87,10,10,10,7,1,,0.00,8,Snow,3
2013-3-30,42,34,25,33,29,25,100,82,53,30.23,30.12,29.98,10,10,5,5,2,,0.00,7,,341
2013-3-31,44,34,24,33,29,25,100,88,56,30.25,30.21,30.11,10,7,0,5,1,,0.00,5,Fog,250